Time;durP1;ratioP1;P1;durP2;ratioP2;P2;SDS_P1;SDS_P2;PMS_P1;PMS_P2;Temp;Humidity;BMP_temperature;BMP_pressure;BME280_temperature;BME280_humidity;BME280_pressure;Samples;Min_cycle;Max_cycle;Signal;HPM_P1;HPM_P2
2022/11/25 00:01:08;;;;;;;18.60;10.10;;;6.80;78.60;;;;;;5122216;27;20947;-73
2022/11/25 00:03:36;;;;;;;20.60;9.35;;;6.80;78.60;;;;;;5119037;27;20245;-72
2022/11/25 00:06:16;;;;;;;26.67;11.18;;;6.80;78.50;;;;;;5123406;27;20208;-72
2022/11/25 00:08:46;;;;;;;23.73;10.35;;;6.80;78.40;;;;;;5123027;27;20194;-72
2022/11/25 00:11:15;;;;;;;20.30;9.55;;;6.80;78.50;;;;;;5121482;27;20206;-72
2022/11/25 00:13:45;;;;;;;17.50;9.73;;;6.70;78.30;;;;;;5118242;27;20206;-72
2022/11/25 00:16:15;;;;;;;26.83;10.70;;;6.70;78.30;;;;;;5119517;27;20286;-71
2022/11/25 00:18:44;;;;;;;25.35;10.90;;;6.60;78.20;;;;;;5119616;27;20198;-72
2022/11/25 00:21:15;;;;;;;18.30;9.52;;;6.60;78.30;;;;;;5115990;27;20308;-70
2022/11/25 00:23:44;;;;;;;22.02;10.75;;;6.60;78.40;;;;;;5117556;27;20329;-72
2022/11/25 00:26:13;;;;;;;27.80;12.38;;;6.60;78.40;;;;;;5121900;27;20694;-71
2022/11/25 00:28:42;;;;;;;22.33;9.90;;;6.60;78.50;;;;;;5121121;27;20205;-71
2022/11/25 00:31:12;;;;;;;18.77;9.27;;;6.60;78.40;;;;;;5119275;27;20226;-71
2022/11/25 00:33:40;;;;;;;24.15;9.95;;;6.60;78.30;;;;;;5120423;27;20294;-71
2022/11/25 00:36:17;;;;;;;21.42;8.68;;;6.60;78.20;;;;;;5115174;27;20212;-73
2022/11/25 00:38:45;;;;;;;23.73;9.77;;;6.60;78.10;;;;;;5118534;27;20773;-71
2022/11/25 00:46:45;;;;;;;19.80;9.25;;;6.40;77.90;;;;;;5112122;27;20263;-72
2022/11/25 00:49:13;;;;;;;19.95;9.43;;;6.30;78.00;;;;;;5118840;27;20258;-72
2022/11/25 00:51:42;;;;;;;21.25;10.73;;;6.30;78.10;;;;;;5110431;27;20269;-72
2022/11/25 00:54:10;;;;;;;24.58;11.02;;;6.30;78.10;;;;;;5115735;27;20671;-71
2022/11/25 00:56:38;;;;;;;21.23;10.63;;;6.30;78.10;;;;;;5116177;28;20221;-72
2022/11/25 00:59:07;;;;;;;20.27;9.18;;;6.40;78.00;;;;;;5121451;28;20210;-72
2022/11/25 01:01:36;;;;;;;21.30;10.43;;;6.40;78.00;;;;;;5123615;28;20645;-73
2022/11/25 01:04:05;;;;;;;15.70;8.38;;;6.30;77.90;;;;;;5116702;28;20198;-72
2022/11/25 01:06:33;;;;;;;12.60;7.18;;;6.30;77.80;;;;;;5117794;28;20206;-72
2022/11/25 01:09:03;;;;;;;14.18;7.43;;;6.30;77.80;;;;;;5119446;28;20210;-72
2022/11/25 01:11:31;;;;;;;13.27;7.72;;;6.30;77.80;;;;;;5107167;27;20230;-72
2022/11/25 01:13:59;;;;;;;13.30;7.97;;;6.20;77.80;;;;;;5122325;28;20255;-72
2022/11/25 01:16:30;;;;;;;14.90;7.47;;;6.20;77.70;;;;;;5119709;28;20213;-72
2022/11/25 01:18:59;;;;;;;12.23;7.88;;;6.20;77.70;;;;;;5119852;28;20259;-72
2022/11/25 01:21:29;;;;;;;12.13;7.00;;;6.20;77.70;;;;;;5122588;27;20230;-72
2022/11/25 01:24:00;;;;;;;12.05;8.10;;;6.20;77.70;;;;;;5121687;28;20210;-72
2022/11/25 01:26:30;;;;;;;12.63;7.60;;;6.20;77.70;;;;;;5121512;28;20258;-72
2022/11/25 01:29:01;;;;;;;12.00;7.68;;;6.20;77.70;;;;;;5120612;28;20225;-72
2022/11/25 01:31:33;;;;;;;13.07;7.80;;;6.20;77.60;;;;;;5116816;27;20234;-72
2022/11/25 01:34:03;;;;;;;11.48;7.50;;;6.20;77.60;;;;;;5139197;27;20678;-72
2022/11/25 01:36:31;;;;;;;14.38;8.50;;;6.10;77.50;;;;;;5119117;28;20206;-72
2022/11/25 01:39:00;;;;;;;11.70;6.93;;;6.10;77.50;;;;;;5119378;28;20202;-72
2022/11/25 01:41:31;;;;;;;11.35;6.78;;;6.10;77.50;;;;;;5121862;28;20631;-72
2022/11/25 01:44:12;;;;;;;10.85;7.45;;;6.00;77.50;;;;;;5121753;28;20247;-72
2022/11/25 01:47:11;;;;;;;13.30;7.00;;;6.00;77.50;;;;;;5114605;27;20212;-72
2022/11/25 01:49:43;;;;;;;16.02;7.38;;;6.00;77.40;;;;;;5104705;28;20729;-71
2022/11/25 01:52:16;;;;;;;9.98;6.88;;;5.90;77.20;;;;;;5120296;28;20190;-71
2022/11/25 01:54:50;;;;;;;13.20;8.00;;;5.90;77.30;;;;;;5121828;28;20209;-71
2022/11/25 01:57:24;;;;;;;20.70;10.77;;;5.80;77.40;;;;;;5120996;27;20621;-71
2022/11/25 01:59:58;;;;;;;15.40;9.23;;;5.80;77.50;;;;;;5123739;27;20202;-72
2022/11/25 02:02:27;;;;;;;13.57;8.15;;;5.80;77.40;;;;;;5118705;27;20194;-71
2022/11/25 02:04:56;;;;;;;13.05;8.30;;;5.80;77.30;;;;;;5122275;27;20666;-71
2022/11/25 02:07:30;;;;;;;12.85;7.55;;;5.70;77.30;;;;;;5125081;27;20213;-71
2022/11/25 02:10:01;;;;;;;11.63;8.00;;;5.70;77.30;;;;;;5139833;27;20228;-72
2022/11/25 02:12:32;;;;;;;14.10;8.40;;;5.70;77.20;;;;;;5125713;27;20213;-71
2022/11/25 02:15:00;;;;;;;10.93;7.45;;;5.70;77.30;;;;;;5125359;27;20205;-72
2022/11/25 02:17:28;;;;;;;11.45;7.30;;;5.60;77.20;;;;;;5123017;27;20596;-71
2022/11/25 02:20:02;;;;;;;12.48;7.70;;;5.60;77.20;;;;;;5123739;27;20287;-72
2022/11/25 02:22:41;;;;;;;10.02;6.82;;;5.60;77.20;;;;;;5123939;27;20278;-72
2022/11/25 02:25:17;;;;;;;10.18;6.60;;;5.60;77.20;;;;;;5124435;27;20198;-73
2022/11/25 02:27:51;;;;;;;11.25;6.40;;;5.60;77.20;;;;;;5133034;27;20206;-73
2022/11/25 02:30:19;;;;;;;9.45;6.55;;;5.60;77.10;;;;;;5128674;27;20295;-72
2022/11/25 02:32:49;;;;;;;8.48;5.90;;;5.50;77.00;;;;;;5121518;27;20214;-72
2022/11/25 02:35:39;;;;;;;9.70;7.07;;;5.50;77.00;;;;;;5127021;27;20206;-72
2022/11/25 02:38:10;;;;;;;8.50;5.75;;;5.50;77.10;;;;;;5112426;27;20206;-72
2022/11/25 02:40:46;;;;;;;15.35;9.60;;;5.50;77.10;;;;;;5138690;27;20226;-72
2022/11/25 02:43:15;;;;;;;16.25;10.43;;;5.40;76.70;;;;;;5116649;27;20204;-71
2022/11/25 02:45:56;;;;;;;37.33;23.80;;;5.40;76.60;;;;;;5124349;27;20786;-72
2022/11/25 02:48:25;;;;;;;22.45;13.05;;;5.30;76.70;;;;;;5121977;27;20217;-72
2022/11/25 02:51:15;;;;;;;19.15;11.65;;;5.20;76.80;;;;;;5121005;27;20234;-71
2022/11/25 02:53:43;;;;;;;14.00;7.85;;;5.20;76.80;;;;;;5124866;27;20973;-72
2022/11/25 02:56:14;;;;;;;12.10;7.50;;;5.10;76.90;;;;;;5122838;27;20209;-73
2022/11/25 02:58:43;;;;;;;9.88;6.60;;;5.10;76.90;;;;;;5119938;27;20283;-74
2022/11/25 03:01:11;;;;;;;12.65;8.30;;;5.10;76.90;;;;;;5123849;27;21017;-73
2022/11/25 03:03:39;;;;;;;16.17;8.20;;;5.10;77.20;;;;;;5122559;27;20209;-71
2022/11/25 03:06:07;;;;;;;11.40;7.68;;;5.10;77.20;;;;;;5134785;27;20204;-72
2022/11/25 03:08:36;;;;;;;10.63;6.40;;;5.20;77.30;;;;;;5120365;27;20205;-72
2022/11/25 03:11:07;;;;;;;11.30;6.43;;;5.20;77.30;;;;;;5121512;27;20236;-72
2022/11/25 03:13:37;;;;;;;8.23;5.57;;;5.20;77.20;;;;;;5121525;27;20206;-72
2022/11/25 03:16:05;;;;;;;9.82;6.22;;;5.20;77.20;;;;;;5125509;27;20198;-73
2022/11/25 03:18:34;;;;;;;8.70;6.55;;;5.30;77.30;;;;;;5123971;27;21356;-73
2022/11/25 03:21:02;;;;;;;10.93;6.60;;;5.30;77.30;;;;;;5120395;27;20317;-72
2022/11/25 03:23:30;;;;;;;7.05;4.72;;;5.30;77.10;;;;;;5117737;27;20217;-72
2022/11/25 03:25:58;;;;;;;9.73;6.05;;;5.30;77.20;;;;;;5121846;27;20226;-73
2022/11/25 03:28:26;;;;;;;15.38;6.28;;;5.30;77.10;;;;;;5118938;27;20206;-73
2022/11/25 03:30:56;;;;;;;11.15;5.72;;;5.30;77.10;;;;;;5122141;27;20227;-73
2022/11/25 03:33:25;;;;;;;8.57;5.78;;;5.30;77.00;;;;;;5118385;27;20259;-72
2022/11/25 03:35:59;;;;;;;8.45;5.68;;;5.30;77.10;;;;;;5122171;27;20285;-73
2022/11/25 03:38:27;;;;;;;8.05;5.10;;;5.30;77.10;;;;;;5136781;27;20211;-72
2022/11/25 03:40:55;;;;;;;14.35;5.43;;;5.30;77.10;;;;;;5125157;27;20582;-72
2022/11/25 03:43:25;;;;;;;8.20;4.70;;;5.30;77.10;;;;;;5122608;27;20708;-72
2022/11/25 03:45:53;;;;;;;7.25;4.80;;;5.30;77.10;;;;;;5119594;27;20217;-72
2022/11/25 03:48:23;;;;;;;12.13;5.05;;;5.30;77.10;;;;;;5134292;27;20210;-72
2022/11/25 03:50:51;;;;;;;8.77;5.43;;;5.30;77.20;;;;;;5138923;27;20225;-73
2022/11/25 03:53:19;;;;;;;9.25;5.40;;;5.30;77.10;;;;;;5120580;27;20615;-72
2022/11/25 03:55:48;;;;;;;8.13;4.70;;;5.30;77.00;;;;;;5123482;27;20294;-72
2022/11/25 03:58:19;;;;;;;16.88;5.95;;;5.30;77.10;;;;;;5121446;27;20826;-72
2022/11/25 04:00:50;;;;;;;9.27;5.10;;;5.20;77.20;;;;;;5119205;27;20244;-72
2022/11/25 04:03:18;;;;;;;8.80;5.50;;;5.20;77.30;;;;;;5120201;27;20218;-72
2022/11/25 04:05:47;;;;;;;8.73;4.53;;;5.30;77.40;;;;;;5123319;27;20201;-73
2022/11/25 04:08:15;;;;;;;8.40;4.90;;;5.30;77.40;;;;;;5118766;27;20205;-72
2022/11/25 04:10:45;;;;;;;7.25;4.80;;;5.30;77.30;;;;;;5122816;27;20226;-73
2022/11/25 04:13:12;;;;;;;8.23;4.57;;;5.30;77.30;;;;;;5121775;27;20202;-72
2022/11/25 04:15:45;;;;;;;7.20;4.68;;;5.30;77.30;;;;;;5122332;27;20309;-73
2022/11/25 04:18:16;;;;;;;6.57;4.10;;;5.30;77.30;;;;;;5120316;27;20267;-72
2022/11/25 04:20:44;;;;;;;6.90;4.20;;;5.30;77.30;;;;;;5122780;27;20255;-73
2022/11/25 04:23:14;;;;;;;6.30;4.15;;;5.30;77.30;;;;;;5122807;27;20715;-72
2022/11/25 04:25:53;;;;;;;6.35;4.03;;;5.30;77.30;;;;;;5114312;27;20221;-73
2022/11/25 04:28:26;;;;;;;6.78;4.20;;;5.30;77.30;;;;;;5122119;27;20209;-73
2022/11/25 04:30:55;;;;;;;6.70;4.00;;;5.30;77.20;;;;;;5121385;27;20222;-73
2022/11/25 04:33:23;;;;;;;7.72;4.30;;;5.30;77.20;;;;;;5122621;27;20301;-73
2022/11/25 04:35:51;;;;;;;11.27;4.32;;;5.30;77.30;;;;;;5122580;27;20776;-73
2022/11/25 04:38:21;;;;;;;6.90;4.47;;;5.20;77.20;;;;;;5123130;27;20243;-72
2022/11/25 04:40:50;;;;;;;6.78;4.45;;;5.20;77.10;;;;;;5119139;27;20326;-72
2022/11/25 04:43:21;;;;;;;6.95;4.10;;;5.10;77.00;;;;;;5140482;27;20221;-72
2022/11/25 04:46:06;;;;;;;6.15;4.05;;;5.10;77.10;;;;;;5122254;27;20209;-72
2022/11/25 04:48:46;;;;;;;6.68;4.15;;;5.10;77.30;;;;;;5120612;27;20221;-72
2022/11/25 04:51:15;;;;;;;7.53;4.38;;;5.10;77.30;;;;;;5117922;27;20232;-72
2022/11/25 04:53:46;;;;;;;7.38;4.90;;;5.10;77.40;;;;;;5133575;27;20198;-72
2022/11/25 04:56:17;;;;;;;6.85;4.10;;;5.10;77.40;;;;;;5123709;28;20209;-72
2022/11/25 05:01:33;;;;;;;5.78;4.00;;;5.20;77.40;;;;;;5120959;28;20882;-73
2022/11/25 05:04:17;;;;;;;5.90;3.70;;;5.20;77.30;;;;;;5117232;28;20664;-72
2022/11/25 05:06:45;;;;;;;7.00;4.60;;;5.20;77.30;;;;;;5121650;27;20223;-71
2022/11/25 05:09:15;;;;;;;5.75;3.67;;;5.20;77.30;;;;;;5125106;27;20194;-71
2022/11/25 05:11:51;;;;;;;6.88;4.35;;;5.20;77.30;;;;;;5121583;28;20317;-72
2022/11/25 05:14:19;;;;;;;6.97;4.35;;;5.20;77.30;;;;;;5120749;28;20211;-72
2022/11/25 05:16:47;;;;;;;6.60;4.32;;;5.20;77.40;;;;;;5122071;27;20206;-72
2022/11/25 05:19:15;;;;;;;5.90;3.75;;;5.20;77.40;;;;;;5119519;28;20263;-72
2022/11/25 05:21:43;;;;;;;7.97;4.80;;;5.20;77.30;;;;;;5120692;27;20250;-72
2022/11/25 05:24:12;;;;;;;8.35;4.40;;;5.20;77.30;;;;;;5120345;27;20281;-72
2022/11/25 05:26:42;;;;;;;6.55;4.65;;;5.20;77.40;;;;;;5122653;27;20206;-72
2022/11/25 05:29:10;;;;;;;9.25;5.30;;;5.20;77.40;;;;;;5121758;28;20206;-72
2022/11/25 05:31:38;;;;;;;7.10;4.95;;;5.30;77.40;;;;;;5123062;27;20214;-72
2022/11/25 05:34:07;;;;;;;13.02;5.75;;;5.30;77.40;;;;;;5126479;27;20258;-71
2022/11/25 05:36:36;;;;;;;5.63;3.90;;;5.30;77.30;;;;;;5142672;27;20845;-72
2022/11/25 05:39:04;;;;;;;6.18;4.47;;;5.30;77.20;;;;;;5123353;27;20294;-72
2022/11/25 05:41:58;;;;;;;5.22;3.83;;;5.30;77.30;;;;;;5126498;27;20252;-71
2022/11/25 05:44:26;;;;;;;4.97;3.55;;;5.30;77.30;;;;;;5120065;27;20284;-72
2022/11/25 05:46:55;;;;;;;6.28;4.10;;;5.30;77.30;;;;;;5120538;27;20209;-72
2022/11/25 05:49:23;;;;;;;5.68;3.40;;;5.30;77.30;;;;;;5143168;27;20205;-72
2022/11/25 05:51:51;;;;;;;5.22;3.63;;;5.30;77.20;;;;;;5115644;27;20339;-72
2022/11/25 05:54:22;;;;;;;6.53;3.63;;;5.30;77.30;;;;;;5124031;27;20258;-71
2022/11/25 05:56:50;;;;;;;5.97;3.90;;;5.30;77.30;;;;;;5125009;27;20225;-72
2022/11/25 05:59:28;;;;;;;5.95;3.70;;;5.30;77.30;;;;;;5129603;27;20214;-72
2022/11/25 06:02:16;;;;;;;6.20;3.95;;;5.30;77.30;;;;;;5118617;27;20293;-72
2022/11/25 06:04:45;;;;;;;7.80;4.45;;;5.30;77.20;;;;;;5123121;27;20202;-72
2022/11/25 06:07:13;;;;;;;5.68;3.72;;;5.30;77.20;;;;;;5125234;27;20212;-72
2022/11/25 06:09:41;;;;;;;6.15;3.67;;;5.30;77.10;;;;;;5133155;27;20198;-71
2022/11/25 06:12:10;;;;;;;7.18;4.10;;;5.30;77.10;;;;;;5126751;27;20213;-72
2022/11/25 06:14:47;;;;;;;8.88;4.30;;;5.20;77.20;;;;;;5140897;27;20211;-72
2022/11/25 06:17:15;;;;;;;6.85;4.45;;;5.20;77.20;;;;;;5127741;27;20198;-72
2022/11/25 06:19:51;;;;;;;7.70;4.40;;;5.20;77.10;;;;;;5121750;27;20574;-72
2022/11/25 06:22:19;;;;;;;5.47;3.47;;;5.20;77.00;;;;;;5126265;27;20206;-72
2022/11/25 06:24:47;;;;;;;7.97;5.20;;;5.10;76.90;;;;;;5121206;27;20299;-72
2022/11/25 06:27:27;;;;;;;7.15;4.80;;;5.10;77.00;;;;;;5126141;27;20266;-72
2022/11/25 06:30:17;;;;;;;6.82;4.47;;;5.10;77.00;;;;;;5121579;27;20294;-72
2022/11/25 06:32:54;;;;;;;5.50;3.80;;;5.00;77.10;;;;;;5121868;27;20297;-72
2022/11/25 06:35:23;;;;;;;5.63;3.97;;;5.10;77.10;;;;;;5121245;27;20659;-72
2022/11/25 06:37:57;;;;;;;5.97;3.58;;;5.10;77.10;;;;;;5124175;27;20566;-72
2022/11/25 06:40:25;;;;;;;6.38;4.03;;;5.00;76.90;;;;;;5127817;27;20226;-72
2022/11/25 06:42:53;;;;;;;5.45;3.60;;;5.00;76.90;;;;;;5121131;27;21348;-72
2022/11/25 06:45:23;;;;;;;6.82;4.45;;;5.00;77.10;;;;;;5123791;27;20930;-72
2022/11/25 06:47:52;;;;;;;6.85;4.18;;;5.00;77.20;;;;;;5125206;27;20214;-72
2022/11/25 06:50:20;;;;;;;8.20;4.50;;;5.00;77.20;;;;;;5127704;27;20225;-72
2022/11/25 06:52:48;;;;;;;7.10;4.85;;;5.00;77.20;;;;;;5125151;27;20201;-72
2022/11/25 06:55:16;;;;;;;6.88;5.00;;;5.00;77.20;;;;;;5126034;27;20731;-71
2022/11/25 06:57:44;;;;;;;7.20;4.65;;;5.00;77.10;;;;;;5118586;27;20252;-72
2022/11/25 07:00:13;;;;;;;7.68;5.07;;;5.00;77.10;;;;;;5125239;27;20245;-72
2022/11/25 07:02:42;;;;;;;7.85;5.65;;;5.00;77.00;;;;;;5125239;27;20686;-72
2022/11/25 07:05:15;;;;;;;12.13;5.15;;;4.90;76.90;;;;;;5125377;27;20567;-72
2022/11/25 07:07:43;;;;;;;13.20;6.10;;;4.90;76.90;;;;;;5123209;27;20194;-72
2022/11/25 07:10:12;;;;;;;7.22;4.72;;;4.90;76.90;;;;;;5127828;27;20250;-72
2022/11/25 07:12:40;;;;;;;8.77;6.13;;;4.80;77.00;;;;;;5126721;27;20210;-72
2022/11/25 07:15:09;;;;;;;9.63;5.47;;;4.90;77.10;;;;;;5125799;27;20240;-72
2022/11/25 07:17:37;;;;;;;7.57;4.75;;;4.90;77.20;;;;;;5124413;27;20715;-72
2022/11/25 07:20:10;;;;;;;8.52;5.22;;;4.90;77.20;;;;;;5127370;27;20270;-72
2022/11/25 07:22:38;;;;;;;7.40;4.55;;;4.90;77.30;;;;;;5127135;27;20206;-72
2022/11/25 07:25:08;;;;;;;8.93;5.10;;;5.00;77.30;;;;;;5127018;27;20217;-72
2022/11/25 07:27:36;;;;;;;9.57;5.05;;;5.00;77.40;;;;;;5127265;27;20902;-72
2022/11/25 07:30:05;;;;;;;6.90;4.35;;;5.10;77.40;;;;;;5125824;27;20259;-72
2022/11/25 07:32:53;;;;;;;6.57;4.28;;;5.10;77.30;;;;;;5124690;27;20212;-72
2022/11/25 07:35:22;;;;;;;6.43;4.68;;;5.10;77.40;;;;;;5126428;27;20687;-71
2022/11/25 07:37:51;;;;;;;6.85;4.07;;;5.10;77.40;;;;;;5123422;27;20201;-72
2022/11/25 07:40:20;;;;;;;6.43;4.22;;;5.20;77.50;;;;;;5124621;27;20218;-72
2022/11/25 07:42:47;;;;;;;6.28;4.05;;;5.20;77.50;;;;;;5123242;27;20258;-72
2022/11/25 07:45:16;;;;;;;6.65;4.15;;;5.20;77.50;;;;;;5121157;27;20309;-72
2022/11/25 07:47:46;;;;;;;11.85;8.25;;;5.30;77.50;;;;;;5119496;27;20261;-72
2022/11/25 07:50:14;;;;;;;10.60;7.20;;;5.30;77.40;;;;;;5122322;27;20241;-72
2022/11/25 07:52:44;;;;;;;17.13;11.00;;;5.30;77.30;;;;;;5122769;27;20227;-72
2022/11/25 07:55:12;;;;;;;17.90;14.07;;;5.20;77.30;;;;;;5123381;27;20209;-72
2022/11/25 07:57:40;;;;;;;20.48;14.80;;;5.20;77.30;;;;;;5125563;27;20255;-72
2022/11/25 08:00:09;;;;;;;21.38;14.68;;;5.20;77.20;;;;;;5123317;27;20218;-72
2022/11/25 08:02:40;;;;;;;12.88;9.95;;;5.10;77.40;;;;;;5124893;27;20274;-72
2022/11/25 08:05:09;;;;;;;16.58;11.68;;;5.10;77.50;;;;;;5125976;27;20225;-72
2022/11/25 08:07:38;;;;;;;18.15;11.05;;;5.20;77.70;;;;;;5126092;27;20202;-72
2022/11/25 08:10:08;;;;;;;16.40;10.18;;;5.20;77.80;;;;;;5124492;27;20217;-72
2022/11/25 08:12:36;;;;;;;19.90;11.05;;;5.30;77.90;;;;;;5122897;27;20202;-72
2022/11/25 08:15:05;;;;;;;16.35;11.25;;;5.30;77.90;;;;;;5122529;27;20195;-72
2022/11/25 08:17:33;;;;;;;16.60;11.55;;;5.40;77.90;;;;;;5126066;27;20194;-72
2022/11/25 08:20:01;;;;;;;18.08;11.15;;;5.40;77.90;;;;;;5125691;27;20217;-72
2022/11/25 08:22:29;;;;;;;14.90;9.63;;;5.50;77.80;;;;;;5123762;27;20212;-72
2022/11/25 08:24:57;;;;;;;10.80;8.00;;;5.50;77.90;;;;;;5124363;27;20851;-71
2022/11/25 08:27:26;;;;;;;10.27;6.80;;;5.50;77.90;;;;;;5121801;27;20210;-71
2022/11/25 08:29:54;;;;;;;11.27;8.23;;;5.60;77.80;;;;;;5128653;27;20236;-71
2022/11/25 08:32:22;;;;;;;9.82;6.40;;;5.60;77.80;;;;;;5119444;27;20202;-71
2022/11/25 08:34:50;;;;;;;10.23;6.15;;;5.60;77.80;;;;;;5124011;27;20209;-71
2022/11/25 08:37:18;;;;;;;9.15;6.13;;;5.60;77.80;;;;;;5119351;27;20875;-71
2022/11/25 08:39:48;;;;;;;9.68;6.18;;;5.60;77.90;;;;;;5123653;27;20270;-71
2022/11/25 08:42:19;;;;;;;7.53;5.65;;;5.60;78.00;;;;;;5123946;27;20997;-72
2022/11/25 08:44:54;;;;;;;8.90;4.95;;;5.70;78.00;;;;;;5123939;27;20290;-71
2022/11/25 08:47:22;;;;;;;7.75;5.10;;;5.70;78.00;;;;;;5125175;27;20209;-71
2022/11/25 08:49:51;;;;;;;11.85;5.85;;;5.70;78.00;;;;;;5121689;27;20206;-71
2022/11/25 08:52:19;;;;;;;15.82;11.23;;;5.70;78.10;;;;;;5123363;27;20733;-71
2022/11/25 08:54:48;;;;;;;25.48;14.95;;;5.70;78.00;;;;;;5123030;28;20202;-72
2022/11/25 08:57:16;;;;;;;35.47;22.30;;;5.70;77.90;;;;;;5121739;27;20288;-72
2022/11/25 08:59:44;;;;;;;43.63;25.40;;;5.60;78.00;;;;;;5120889;27;20679;-71
2022/11/25 09:02:16;;;;;;;28.13;17.38;;;5.50;78.00;;;;;;5124462;28;20198;-72
2022/11/25 09:04:44;;;;;;;37.03;18.55;;;5.50;78.20;;;;;;5123915;28;20837;-72
2022/11/25 09:07:12;;;;;;;43.65;20.35;;;5.50;78.40;;;;;;5122548;27;20727;-72
2022/11/25 09:09:40;;;;;;;39.30;21.33;;;5.50;78.40;;;;;;5128436;27;20216;-72
2022/11/25 09:12:08;;;;;;;41.08;22.00;;;5.50;78.40;;;;;;5126573;27;20714;-71
2022/11/25 09:14:36;;;;;;;45.58;23.63;;;5.50;78.60;;;;;;5122470;27;20531;-71
2022/11/25 09:17:08;;;;;;;40.42;22.33;;;5.60;78.90;;;;;;5127435;27;20209;-72
2022/11/25 09:19:39;;;;;;;38.13;18.42;;;5.70;79.10;;;;;;5127002;27;20206;-71
2022/11/25 09:22:07;;;;;;;35.92;18.40;;;5.80;79.10;;;;;;5123762;27;20202;-72
2022/11/25 09:24:36;;;;;;;34.47;17.95;;;5.80;79.10;;;;;;5126470;27;20229;-71
2022/11/25 09:27:05;;;;;;;29.67;17.27;;;5.90;79.10;;;;;;5128820;27;20537;-71
2022/11/25 09:29:33;;;;;;;32.40;18.02;;;6.00;79.10;;;;;;5124885;27;20201;-71
2022/11/25 09:32:01;;;;;;;30.52;16.45;;;6.00;79.10;;;;;;5124946;27;20223;-72
2022/11/25 09:34:29;;;;;;;25.17;15.25;;;6.10;79.10;;;;;;5128426;27;20690;-71
2022/11/25 09:36:58;;;;;;;19.45;13.98;;;6.10;79.20;;;;;;5128512;27;20206;-71
2022/11/25 09:39:29;;;;;;;21.60;12.38;;;6.10;79.30;;;;;;5128910;27;20678;-71
2022/11/25 09:48:06;;;;;;;13.40;7.55;;;6.20;79.40;;;;;;5126613;27;20206;-71
2022/11/25 09:50:55;;;;;;;11.25;7.35;;;6.20;79.40;;;;;;5129500;27;20229;-71
2022/11/25 09:53:36;;;;;;;10.40;6.97;;;6.30;79.40;;;;;;5126334;27;20243;-70
2022/11/25 09:56:10;;;;;;;11.23;7.68;;;6.30;79.50;;;;;;5124926;27;20198;-71
2022/11/25 09:58:44;;;;;;;9.45;6.40;;;6.30;79.50;;;;;;5123895;27;20850;-70
2022/11/25 10:01:17;;;;;;;10.63;7.05;;;6.40;79.60;;;;;;5126551;27;20734;-71
2022/11/25 10:03:48;;;;;;;11.25;6.47;;;6.40;79.60;;;;;;5128310;27;20198;-70
2022/11/25 10:06:19;;;;;;;9.85;6.20;;;6.40;79.60;;;;;;5128155;27;20233;-70
2022/11/25 10:08:51;;;;;;;8.60;5.78;;;6.50;79.70;;;;;;5127558;27;20950;-71
2022/11/25 10:11:29;;;;;;;13.30;6.60;;;6.50;79.70;;;;;;5125093;27;20230;-71
2022/11/25 10:14:01;;;;;;;9.77;6.32;;;6.50;79.80;;;;;;5115300;27;21144;-71
2022/11/25 10:16:36;;;;;;;10.15;6.35;;;6.60;79.80;;;;;;5125479;27;20194;-71
2022/11/25 10:19:15;;;;;;;10.38;6.85;;;6.60;79.80;;;;;;5125189;27;20221;-71
2022/11/25 10:21:45;;;;;;;10.05;6.25;;;6.60;79.90;;;;;;5127161;27;20225;-70
2022/11/25 10:24:17;;;;;;;10.85;6.25;;;6.60;79.90;;;;;;5128222;27;20228;-71
2022/11/25 10:26:49;;;;;;;12.40;6.53;;;6.60;80.10;;;;;;5123729;27;20223;-70
2022/11/25 10:29:25;;;;;;;12.68;7.90;;;6.70;80.20;;;;;;5125411;27;20198;-70
2022/11/25 10:32:01;;;;;;;9.57;6.78;;;6.70;80.30;;;;;;5127468;27;20257;-71
2022/11/25 10:34:35;;;;;;;10.98;6.55;;;6.80;80.30;;;;;;5129743;27;20614;-70
2022/11/25 10:37:12;;;;;;;12.73;7.63;;;6.80;80.40;;;;;;5128921;27;20197;-71
2022/11/25 10:39:41;;;;;;;10.73;6.90;;;6.80;80.40;;;;;;5129341;27;20206;-71
2022/11/25 10:42:16;;;;;;;10.85;6.65;;;6.90;80.40;;;;;;5125431;27;20202;-71
2022/11/25 10:44:44;;;;;;;11.88;7.82;;;6.90;80.40;;;;;;5127486;27;20584;-70
2022/11/25 10:47:33;;;;;;;10.93;6.97;;;6.90;80.40;;;;;;5129093;27;20251;-71
2022/11/25 10:50:14;;;;;;;13.23;7.40;;;6.90;80.50;;;;;;5129171;27;20206;-71
2022/11/25 10:52:50;;;;;;;10.02;7.55;;;7.00;80.50;;;;;;5123097;27;20209;-71
2022/11/25 10:55:23;;;;;;;16.02;7.88;;;7.00;80.50;;;;;;5124051;27;20678;-71
2022/11/25 10:57:51;;;;;;;14.43;8.52;;;7.00;80.50;;;;;;5124040;27;20194;-71
2022/11/25 11:00:28;;;;;;;11.18;7.40;;;7.00;80.40;;;;;;5128074;27;20735;-71
2022/11/25 11:02:57;;;;;;;13.38;8.07;;;7.00;80.50;;;;;;5126752;27;20253;-71
2022/11/25 11:05:28;;;;;;;13.73;8.85;;;7.00;80.60;;;;;;5112852;27;20244;-71
2022/11/25 11:08:20;;;;;;;16.50;8.90;;;7.00;80.60;;;;;;5121185;27;20263;-71
2022/11/25 11:11:13;;;;;;;11.20;8.68;;;7.00;80.70;;;;;;5124734;27;20798;-71
2022/11/25 11:13:42;;;;;;;14.00;9.38;;;7.00;80.70;;;;;;5124653;27;20206;-71
2022/11/25 11:16:30;;;;;;;12.60;8.55;;;7.00;80.60;;;;;;5124210;27;20202;-71
2022/11/25 11:18:59;;;;;;;13.65;8.85;;;7.00;80.80;;;;;;5126320;27;20198;-71
2022/11/25 11:21:31;;;;;;;15.88;9.52;;;7.00;80.90;;;;;;5126041;27;20233;-71
2022/11/25 11:24:00;;;;;;;13.23;8.90;;;7.00;80.90;;;;;;5122512;27;20293;-71
2022/11/25 11:26:32;;;;;;;20.25;9.30;;;7.10;80.90;;;;;;5125379;27;20217;-71
2022/11/25 11:29:03;;;;;;;15.20;9.50;;;7.10;81.00;;;;;;5122615;27;20488;-70
2022/11/25 11:31:40;;;;;;;15.07;8.95;;;7.10;81.00;;;;;;5125328;27;20778;-71
2022/11/25 11:34:33;;;;;;;16.15;9.35;;;7.10;81.10;;;;;;5125421;27;20198;-71
2022/11/25 11:37:16;;;;;;;11.98;8.38;;;7.10;81.10;;;;;;5126808;27;20202;-71
2022/11/25 11:40:01;;;;;;;13.52;8.70;;;7.10;81.10;;;;;;5122884;27;20209;-70
2022/11/25 11:42:43;;;;;;;14.65;8.98;;;7.10;81.20;;;;;;5125514;27;20200;-71
2022/11/25 11:45:31;;;;;;;15.70;9.15;;;7.10;81.20;;;;;;5124275;27;20250;-71
2022/11/25 11:48:11;;;;;;;13.98;9.43;;;7.20;81.20;;;;;;5124093;27;20667;-70
2022/11/25 11:50:45;;;;;;;13.98;9.40;;;7.20;81.30;;;;;;5123711;27;20714;-71
2022/11/25 11:53:22;;;;;;;15.82;9.63;;;7.20;81.40;;;;;;5125676;27;20254;-71
2022/11/25 11:55:59;;;;;;;17.88;10.57;;;7.20;81.40;;;;;;5117032;27;20591;-71
2022/11/25 11:59:01;;;;;;;13.60;9.15;;;7.20;81.30;;;;;;5114582;27;20309;-70
2022/11/25 12:01:41;;;;;;;15.95;9.85;;;7.30;81.40;;;;;;5125730;27;20226;-71
2022/11/25 12:04:17;;;;;;;15.20;10.15;;;7.30;81.40;;;;;;5125786;27;20686;-71
2022/11/25 12:06:56;;;;;;;16.27;9.75;;;7.30;81.40;;;;;;5119100;27;20229;-71
2022/11/25 12:09:28;;;;;;;18.05;10.27;;;7.30;81.50;;;;;;5124838;27;20197;-70
2022/11/25 12:12:02;;;;;;;16.63;9.85;;;7.30;81.50;;;;;;5121815;27;20707;-71
2022/11/25 12:14:39;;;;;;;19.52;10.55;;;7.30;81.60;;;;;;5139057;27;20705;-70
2022/11/25 12:17:13;;;;;;;16.60;10.60;;;7.40;81.60;;;;;;5124230;27;20202;-70
2022/11/25 12:19:50;;;;;;;15.02;9.75;;;7.40;81.80;;;;;;5126819;27;20254;-71
2022/11/25 12:22:22;;;;;;;16.95;11.27;;;7.40;81.90;;;;;;5125428;27;20217;-71
2022/11/25 12:24:56;;;;;;;14.50;9.32;;;7.40;81.90;;;;;;5124166;27;20202;-71
2022/11/25 12:27:31;;;;;;;17.00;9.32;;;7.50;81.90;;;;;;5123324;27;20625;-71
2022/11/25 12:30:04;;;;;;;13.80;9.20;;;7.50;81.90;;;;;;5125644;27;20201;-71
2022/11/25 12:32:53;;;;;;;14.07;9.02;;;7.50;81.90;;;;;;5126212;27;20254;-71
2022/11/25 12:35:31;;;;;;;12.98;9.88;;;7.60;82.00;;;;;;5126443;27;20209;-70
2022/11/25 12:38:04;;;;;;;16.60;11.63;;;7.60;82.00;;;;;;5125758;27;20250;-71
2022/11/25 12:40:37;;;;;;;13.82;10.20;;;7.60;82.00;;;;;;5124357;27;20233;-70
2022/11/25 12:43:24;;;;;;;19.02;10.57;;;7.60;82.00;;;;;;5125561;27;20194;-71
2022/11/25 12:46:04;;;;;;;17.02;10.52;;;7.60;82.00;;;;;;5125538;27;20206;-70
2022/11/25 12:48:38;;;;;;;16.23;10.88;;;7.60;82.00;;;;;;5125539;27;20234;-71
2022/11/25 12:51:16;;;;;;;18.50;11.02;;;7.60;82.10;;;;;;5125364;27;20226;-71
2022/11/25 12:53:50;;;;;;;13.95;10.93;;;7.60;82.10;;;;;;5123538;27;20312;-71
2022/11/25 12:56:24;;;;;;;18.13;11.63;;;7.60;82.20;;;;;;5122909;27;20563;-70
2022/11/25 12:59:05;;;;;;;15.68;11.15;;;7.60;82.20;;;;;;5126353;27;20270;-70
2022/11/25 13:01:49;;;;;;;23.33;12.02;;;7.60;82.30;;;;;;5126104;27;20294;-71
2022/11/25 13:04:54;;;;;;;17.15;10.35;;;7.60;82.40;;;;;;5126455;28;20208;-71
2022/11/25 13:07:44;;;;;;;19.67;11.55;;;7.70;82.50;;;;;;5075820;27;20248;-70
2022/11/25 13:10:40;;;;;;;16.70;11.10;;;7.70;82.50;;;;;;5117823;28;20888;-71
2022/11/25 13:13:21;;;;;;;18.10;10.95;;;7.70;82.60;;;;;;5125405;28;20205;-70
2022/11/25 13:15:52;;;;;;;23.13;11.20;;;7.70;82.60;;;;;;5125617;28;20212;-70
2022/11/25 13:18:26;;;;;;;15.15;9.75;;;7.80;82.60;;;;;;5126418;28;20205;-71
2022/11/25 13:20:55;;;;;;;14.35;10.32;;;7.80;82.70;;;;;;5124736;28;20230;-71
2022/11/25 13:23:33;;;;;;;14.50;10.23;;;7.80;82.70;;;;;;5120941;28;20213;-71
2022/11/25 13:26:37;;;;;;;17.25;11.02;;;7.80;82.70;;;;;;5124516;28;20210;-70
2022/11/25 13:29:41;;;;;;;17.60;10.30;;;7.90;82.70;;;;;;5125982;28;20205;-70